createdAt,value
2019-03-28T00:00:20.981Z,1026.13
2019-03-28T00:01:20.960Z,1026.12
2019-03-28T00:02:20.981Z,1026.13
2019-03-28T00:03:20.933Z,1026.14
2019-03-28T00:04:20.924Z,1026.15
2019-03-28T00:05:20.911Z,1026.10
2019-03-28T00:06:20.904Z,1026.12
2019-03-28T00:07:23.901Z,1026.16
2019-03-28T00:08:20.897Z,1026.16
2019-03-28T00:09:20.871Z,1026.14
2019-03-28T00:10:20.864Z,1026.15
2019-03-28T00:11:20.845Z,1026.14
2019-03-28T00:12:20.834Z,1026.09
2019-03-28T00:13:20.822Z,1026.11
2019-03-28T00:14:20.843Z,1026.15
2019-03-28T00:15:20.801Z,1026.06
2019-03-28T00:16:20.790Z,1026.10
2019-03-28T00:17:20.778Z,1026.08
2019-03-28T00:18:20.772Z,1026.07
2019-03-28T00:19:20.760Z,1026.03
2019-03-28T00:20:20.773Z,1026.05
2019-03-28T00:21:20.738Z,1026.07
2019-03-28T00:22:20.724Z,1026.07
2019-03-28T00:23:20.712Z,1026.12
2019-03-28T00:24:20.702Z,1026.08
2019-03-28T00:25:20.689Z,1026.05
2019-03-28T00:26:30.148Z,1026.04
2019-03-28T00:27:21.670Z,1026.09
2019-03-28T00:28:20.661Z,1026.08
2019-03-28T00:29:20.654Z,1026.03
2019-03-28T00:30:20.638Z,1026.07
2019-03-28T00:31:20.628Z,1026.06
2019-03-28T00:32:20.947Z,1025.99
2019-03-28T00:33:20.605Z,1026.02
2019-03-28T00:34:20.590Z,1026.06
2019-03-28T00:35:20.577Z,1026.02
2019-03-28T00:36:20.567Z,1026.05
2019-03-28T00:37:20.561Z,1026.06
2019-03-28T00:38:20.558Z,1026.04
2019-03-28T00:39:20.540Z,1026.06
2019-03-28T00:40:20.529Z,1026.02
2019-03-28T00:41:20.520Z,1026.02
2019-03-28T00:42:20.501Z,1026.02
2019-03-28T00:43:20.492Z,1026.02
2019-03-28T00:44:20.504Z,1026.06
2019-03-28T00:45:20.474Z,1025.98
2019-03-28T00:46:21.191Z,1026.00
2019-03-28T00:47:20.445Z,1026.02
2019-03-28T00:48:20.437Z,1026.00
2019-03-28T00:49:20.423Z,1025.95
2019-03-28T00:50:20.458Z,1026.00
2019-03-28T00:51:20.407Z,1026.02
2019-03-28T00:52:20.395Z,1026.01
2019-03-28T00:53:20.382Z,1026.02
2019-03-28T00:54:21.085Z,1026.02
2019-03-28T00:55:20.356Z,1026.01
2019-03-28T00:56:20.352Z,1026.00
2019-03-28T00:57:20.334Z,1025.99
2019-03-28T00:58:20.328Z,1026.02
2019-03-28T00:59:20.317Z,1026.00
2019-03-28T01:00:20.306Z,1025.98
2019-03-28T01:01:20.295Z,1025.97
2019-03-28T01:02:20.293Z,1025.99
2019-03-28T01:03:20.273Z,1026.02
2019-03-28T01:04:20.261Z,1025.99
2019-03-28T01:05:20.250Z,1026.02
2019-03-28T01:06:20.234Z,1026.04
2019-03-28T01:07:20.224Z,1026.02
2019-03-28T01:08:20.545Z,1026.09
2019-03-28T01:09:20.203Z,1026.06
2019-03-28T01:10:20.196Z,1026.07
2019-03-28T01:11:20.184Z,1026.05
2019-03-28T01:12:20.173Z,1026.08
2019-03-28T01:13:20.163Z,1026.03
2019-03-28T01:14:20.183Z,1026.04
2019-03-28T01:15:20.164Z,1026.10
2019-03-28T01:16:20.130Z,1026.11
2019-03-28T01:17:20.112Z,1026.07
2019-03-28T01:18:20.204Z,1026.07
2019-03-28T01:19:20.091Z,1026.09
2019-03-28T01:20:20.407Z,1026.07
2019-03-28T01:21:20.068Z,1026.06
2019-03-28T01:22:20.062Z,1026.08
2019-03-28T01:23:20.054Z,1026.06
2019-03-28T01:24:20.040Z,1026.10
2019-03-28T01:25:20.028Z,1026.07
2019-03-28T01:26:20.046Z,1026.11
2019-03-28T01:27:20.005Z,1026.08
2019-03-28T01:28:19.991Z,1026.11
2019-03-28T01:29:19.980Z,1026.10
2019-03-28T01:30:19.973Z,1026.09
2019-03-28T01:31:19.962Z,1026.09
2019-03-28T01:32:19.958Z,1026.13
2019-03-28T01:33:19.941Z,1026.10
2019-03-28T01:34:19.931Z,1026.12
2019-03-28T01:35:19.924Z,1026.04
2019-03-28T01:36:19.907Z,1026.03
2019-03-28T01:37:19.894Z,1026.02
2019-03-28T01:38:20.289Z,1026.05
2019-03-28T01:39:19.868Z,1025.99
2019-03-28T01:40:19.858Z,1026.01
2019-03-28T01:41:19.846Z,1026.00
2019-03-28T01:42:19.839Z,1025.99
2019-03-28T01:43:19.828Z,1026.02
2019-03-28T01:44:19.845Z,1026.01
2019-03-28T01:45:19.807Z,1026.00
2019-03-28T01:46:19.792Z,1025.99
2019-03-28T01:47:19.780Z,1025.99
2019-03-28T01:48:19.772Z,1025.99
2019-03-28T01:49:19.760Z,1026.03
2019-03-28T01:50:19.772Z,1026.04
2019-03-28T01:51:19.736Z,1026.00
2019-03-28T01:52:19.725Z,1026.01
2019-03-28T01:53:19.714Z,1026.05
2019-03-28T01:54:19.707Z,1025.99
2019-03-28T01:55:19.696Z,1026.03
2019-03-28T01:56:20.011Z,1026.05
2019-03-28T01:57:19.674Z,1026.05
2019-03-28T01:58:19.658Z,1026.02
2019-03-28T01:59:19.647Z,1026.04
2019-03-28T02:00:19.636Z,1026.03
2019-03-28T02:01:19.625Z,1026.04
2019-03-28T02:02:20.172Z,1026.00
2019-03-28T02:03:19.611Z,1026.01
2019-03-28T02:04:19.596Z,1026.00
2019-03-28T02:05:19.585Z,1026.03
2019-03-28T02:06:19.571Z,1026.04
2019-03-28T02:07:19.559Z,1026.04
2019-03-28T02:08:19.556Z,1026.06
2019-03-28T02:09:19.537Z,1026.00
2019-03-28T02:10:19.530Z,1026.04
2019-03-28T02:11:19.518Z,1026.05
2019-03-28T02:12:19.507Z,1026.01
2019-03-28T02:13:19.497Z,1025.98
2019-03-28T02:14:19.514Z,1025.97
2019-03-28T02:15:19.470Z,1025.99
2019-03-28T02:16:19.458Z,1026.00
2019-03-28T02:17:19.447Z,1026.01
2019-03-28T02:18:19.444Z,1026.02
2019-03-28T02:19:19.603Z,1026.02
2019-03-28T02:20:19.433Z,1026.00
2019-03-28T02:21:19.412Z,1026.05
2019-03-28T02:22:19.533Z,1025.98
2019-03-28T02:23:19.387Z,1026.04
2019-03-28T02:24:19.379Z,1026.06
2019-03-28T02:25:19.363Z,1026.05
2019-03-28T02:26:19.379Z,1026.08
2019-03-28T02:27:24.300Z,1026.11
2019-03-28T02:28:20.329Z,1026.12
2019-03-28T02:29:19.314Z,1026.13
2019-03-28T02:30:19.319Z,1026.07
2019-03-28T02:31:19.397Z,1026.13
2019-03-28T02:32:19.321Z,1026.10
2019-03-28T02:33:19.285Z,1026.14
2019-03-28T02:34:19.260Z,1026.12
2019-03-28T02:35:19.250Z,1026.13
2019-03-28T02:36:19.240Z,1026.12
2019-03-28T02:37:19.230Z,1026.15
2019-03-28T02:38:19.248Z,1026.18
2019-03-28T02:39:19.205Z,1026.13
2019-03-28T02:40:19.194Z,1026.17
2019-03-28T02:41:19.181Z,1026.18
2019-03-28T02:42:19.180Z,1026.16
2019-03-28T02:43:19.910Z,1026.20
2019-03-28T02:44:19.164Z,1026.19
2019-03-28T02:45:19.144Z,1026.17
2019-03-28T02:46:19.125Z,1026.18
2019-03-28T02:47:19.124Z,1026.14
2019-03-28T02:48:19.104Z,1026.16
2019-03-28T02:49:19.878Z,1026.17
2019-03-28T02:50:19.428Z,1026.17
2019-03-28T02:51:19.079Z,1026.18
2019-03-28T02:52:19.065Z,1026.16
2019-03-28T02:53:19.053Z,1026.15
2019-03-28T02:54:19.043Z,1026.16
2019-03-28T02:55:19.032Z,1026.14
2019-03-28T02:56:19.052Z,1026.14
2019-03-28T02:57:19.010Z,1026.15
2019-03-28T02:58:18.994Z,1026.19
2019-03-28T02:59:18.983Z,1026.17
2019-03-28T03:00:18.972Z,1026.14
2019-03-28T03:01:18.966Z,1026.17
2019-03-28T03:02:18.990Z,1026.20
2019-03-28T03:03:18.943Z,1026.17
2019-03-28T03:04:18.933Z,1026.20
2019-03-28T03:05:18.921Z,1026.20
2019-03-28T03:06:18.912Z,1026.20
2019-03-28T03:07:18.894Z,1026.20
2019-03-28T03:08:19.223Z,1026.18
2019-03-28T03:09:18.872Z,1026.23
2019-03-28T03:10:18.861Z,1026.18
2019-03-28T03:11:18.849Z,1026.19
2019-03-28T03:12:18.838Z,1026.18
2019-03-28T03:13:19.698Z,1026.17
2019-03-28T03:14:18.857Z,1026.17
2019-03-28T03:15:18.812Z,1026.18
2019-03-28T03:16:18.799Z,1026.15
2019-03-28T03:17:18.792Z,1026.16
2019-03-28T03:18:21.397Z,1026.12
2019-03-28T03:19:18.762Z,1026.14
2019-03-28T03:20:18.773Z,1026.14
2019-03-28T03:21:18.738Z,1026.15
2019-03-28T03:22:18.733Z,1026.18
2019-03-28T03:23:19.956Z,1026.14
2019-03-28T03:24:18.710Z,1026.12
2019-03-28T03:25:18.729Z,1026.16
2019-03-28T03:26:18.726Z,1026.16
2019-03-28T03:27:18.683Z,1026.17
2019-03-28T03:28:18.670Z,1026.14
2019-03-28T03:29:18.660Z,1026.20
2019-03-28T03:30:18.654Z,1026.19
2019-03-28T03:31:21.174Z,1026.18
2019-03-28T03:32:18.653Z,1026.15
2019-03-28T03:33:18.643Z,1026.17
2019-03-28T03:34:18.601Z,1026.15
2019-03-28T03:35:18.605Z,1026.17
2019-03-28T03:36:18.578Z,1026.20
2019-03-28T03:37:18.568Z,1026.21
2019-03-28T03:38:18.586Z,1026.19
2019-03-28T03:39:18.541Z,1026.20
2019-03-28T03:40:18.527Z,1026.24
2019-03-28T03:41:18.518Z,1026.23
2019-03-28T03:42:18.507Z,1026.23
2019-03-28T03:43:18.494Z,1026.23
2019-03-28T03:44:18.502Z,1026.23
2019-03-28T03:45:18.472Z,1026.21
2019-03-28T03:46:18.466Z,1026.21
2019-03-28T03:47:19.544Z,1026.19
2019-03-28T03:48:18.446Z,1026.24
2019-03-28T03:49:18.432Z,1026.19
2019-03-28T03:50:18.735Z,1026.28
2019-03-28T03:51:18.405Z,1026.22
2019-03-28T03:52:18.394Z,1026.24
2019-03-28T03:53:18.384Z,1026.21
2019-03-28T03:54:18.376Z,1026.25
2019-03-28T03:55:18.366Z,1026.29
2019-03-28T03:56:18.391Z,1026.28
2019-03-28T03:57:18.346Z,1026.30
2019-03-28T03:58:18.913Z,1026.34
2019-03-28T03:59:18.323Z,1026.30
2019-03-28T04:00:18.304Z,1026.29
2019-03-28T04:01:18.738Z,1026.27
2019-03-28T04:02:18.296Z,1026.23
2019-03-28T04:03:18.270Z,1026.29
2019-03-28T04:04:18.260Z,1026.27
2019-03-28T04:05:18.255Z,1026.28
2019-03-28T04:06:18.242Z,1026.31
2019-03-28T04:07:18.228Z,1026.34
2019-03-28T04:08:18.249Z,1026.31
2019-03-28T04:09:18.288Z,1026.36
2019-03-28T04:10:18.194Z,1026.28
2019-03-28T04:11:18.183Z,1026.30
2019-03-28T04:12:18.172Z,1026.32
2019-03-28T04:13:18.161Z,1026.31
2019-03-28T04:14:18.186Z,1026.29
2019-03-28T04:15:18.138Z,1026.29
2019-03-28T04:16:18.125Z,1026.34
2019-03-28T04:17:18.121Z,1026.37
2019-03-28T04:18:21.850Z,1026.38
2019-03-28T04:19:18.099Z,1026.41
2019-03-28T04:20:18.092Z,1026.40
2019-03-28T04:21:18.073Z,1026.39
2019-03-28T04:22:18.075Z,1026.39
2019-03-28T04:23:18.120Z,1026.49
2019-03-28T04:24:18.045Z,1026.39
2019-03-28T04:25:18.034Z,1026.41
2019-03-28T04:26:18.345Z,1026.40
2019-03-28T04:27:18.006Z,1026.42
2019-03-28T04:28:30.693Z,1026.41
2019-03-28T04:29:18.987Z,1026.40
2019-03-28T04:30:18.008Z,1026.40
2019-03-28T04:31:17.969Z,1026.41
2019-03-28T04:32:17.977Z,1026.42
2019-03-28T04:33:17.941Z,1026.41
2019-03-28T04:34:17.937Z,1026.43
2019-03-28T04:35:17.923Z,1026.47
2019-03-28T04:36:17.913Z,1026.47
2019-03-28T04:37:17.901Z,1026.50
2019-03-28T04:38:17.927Z,1026.51
2019-03-28T04:39:17.886Z,1026.56
2019-03-28T04:40:17.863Z,1026.61
2019-03-28T04:41:17.852Z,1026.55
2019-03-28T04:42:17.845Z,1026.54
2019-03-28T04:43:17.834Z,1026.53
2019-03-28T04:44:17.869Z,1026.60
2019-03-28T04:45:17.812Z,1026.57
2019-03-28T04:46:17.800Z,1026.64
2019-03-28T04:47:17.789Z,1026.62
2019-03-28T04:48:17.780Z,1026.62
2019-03-28T04:49:18.554Z,1026.67
2019-03-28T04:50:17.758Z,1026.65
2019-03-28T04:51:17.741Z,1026.64
2019-03-28T04:52:17.729Z,1026.65
2019-03-28T04:53:17.718Z,1026.62
2019-03-28T04:54:17.711Z,1026.63
2019-03-28T04:55:17.700Z,1026.64
2019-03-28T04:56:17.727Z,1026.63
2019-03-28T04:57:17.679Z,1026.65
2019-03-28T04:58:17.663Z,1026.67
2019-03-28T04:59:17.651Z,1026.67
2019-03-28T05:00:17.641Z,1026.62
2019-03-28T05:01:17.629Z,1026.69
2019-03-28T05:02:17.957Z,1026.71
2019-03-28T05:03:17.608Z,1026.65
2019-03-28T05:04:20.837Z,1026.67
2019-03-28T05:05:17.588Z,1026.68
2019-03-28T05:06:17.580Z,1026.69
2019-03-28T05:07:17.567Z,1026.68
2019-03-28T05:08:17.604Z,1026.71
2019-03-28T05:09:17.547Z,1026.70
2019-03-28T05:10:17.529Z,1026.71
2019-03-28T05:11:17.519Z,1026.68
2019-03-28T05:12:17.508Z,1026.72
2019-03-28T05:13:17.497Z,1026.70
2019-03-28T05:14:17.533Z,1026.71
2019-03-28T05:15:20.243Z,1026.76
2019-03-28T05:16:17.467Z,1026.76
2019-03-28T05:17:17.459Z,1026.73
2019-03-28T05:18:17.447Z,1026.74
2019-03-28T05:19:17.434Z,1026.75
2019-03-28T05:20:17.434Z,1026.75
2019-03-28T05:21:17.411Z,1026.79
2019-03-28T05:22:17.396Z,1026.79
2019-03-28T05:23:17.386Z,1026.77
2019-03-28T05:24:17.375Z,1026.83
2019-03-28T05:25:17.365Z,1026.83
2019-03-28T05:26:17.686Z,1026.83
2019-03-28T05:27:17.347Z,1026.88
2019-03-28T05:28:17.335Z,1026.86
2019-03-28T05:29:17.325Z,1026.95
2019-03-28T05:30:17.566Z,1026.87
2019-03-28T05:31:17.303Z,1026.89
2019-03-28T05:32:17.620Z,1026.90
2019-03-28T05:33:17.410Z,1026.95
2019-03-28T05:34:17.264Z,1026.89
2019-03-28T05:35:17.253Z,1026.98
2019-03-28T05:36:17.241Z,1026.95
2019-03-28T05:37:17.231Z,1026.95
2019-03-28T05:38:17.275Z,1026.90
2019-03-28T05:39:17.213Z,1026.93
2019-03-28T05:40:17.201Z,1026.94
2019-03-28T05:41:17.617Z,1026.93
2019-03-28T05:42:17.176Z,1026.96
2019-03-28T05:43:17.165Z,1026.97
2019-03-28T05:44:17.196Z,1027.00
2019-03-28T05:45:17.142Z,1026.99
2019-03-28T05:46:17.137Z,1027.02
2019-03-28T05:47:17.124Z,1027.02
2019-03-28T05:48:17.118Z,1027.05
2019-03-28T05:49:17.107Z,1027.05
2019-03-28T05:50:17.420Z,1027.07
2019-03-28T05:51:17.085Z,1027.06
2019-03-28T05:52:17.072Z,1027.07
2019-03-28T05:53:17.060Z,1027.07
2019-03-28T05:54:17.042Z,1027.10
2019-03-28T05:55:17.034Z,1027.12
2019-03-28T05:56:17.055Z,1027.11
2019-03-28T05:57:17.011Z,1027.11
2019-03-28T05:58:17.002Z,1027.13
2019-03-28T05:59:16.992Z,1027.16
2019-03-28T06:00:16.980Z,1027.14
2019-03-28T06:01:16.969Z,1027.13
2019-03-28T06:02:17.289Z,1027.16
2019-03-28T06:03:16.943Z,1027.18
2019-03-28T06:04:16.931Z,1027.19
2019-03-28T06:05:16.920Z,1027.18
2019-03-28T06:06:16.909Z,1027.20
2019-03-28T06:07:16.897Z,1027.24
2019-03-28T06:08:16.906Z,1027.23
2019-03-28T06:09:16.876Z,1027.27
2019-03-28T06:10:16.871Z,1027.30
2019-03-28T06:11:16.859Z,1027.28
2019-03-28T06:12:19.080Z,1027.29
2019-03-28T06:13:16.837Z,1027.28
2019-03-28T06:14:16.841Z,1027.32
2019-03-28T06:15:16.809Z,1027.28
2019-03-28T06:16:16.797Z,1027.35
2019-03-28T06:17:16.787Z,1027.36
2019-03-28T06:18:16.780Z,1027.42
2019-03-28T06:19:16.769Z,1027.41
2019-03-28T06:20:16.803Z,1027.43
2019-03-28T06:21:16.748Z,1027.39
2019-03-28T06:22:16.731Z,1027.45
2019-03-28T06:23:16.721Z,1027.46
2019-03-28T06:24:16.708Z,1027.47
2019-03-28T06:25:16.698Z,1027.51
2019-03-28T06:26:16.729Z,1027.47
2019-03-28T06:27:16.683Z,1027.51
2019-03-28T06:28:16.671Z,1027.56
2019-03-28T06:29:23.639Z,1027.54
2019-03-28T06:30:18.342Z,1027.56
2019-03-28T06:31:16.633Z,1027.56
2019-03-28T06:32:16.668Z,1027.57
2019-03-28T06:33:16.609Z,1027.59
2019-03-28T06:34:16.602Z,1027.59
2019-03-28T06:35:16.591Z,1027.51
2019-03-28T06:36:16.581Z,1027.56
2019-03-28T06:37:16.568Z,1027.53
2019-03-28T06:38:16.889Z,1027.58
2019-03-28T06:39:16.660Z,1027.58
2019-03-28T06:40:16.536Z,1027.58
2019-03-28T06:41:16.525Z,1027.55
2019-03-28T06:42:16.510Z,1027.56
2019-03-28T06:43:16.498Z,1027.61
2019-03-28T06:44:16.531Z,1027.58
2019-03-28T06:45:16.476Z,1027.64
2019-03-28T06:46:16.468Z,1027.63
2019-03-28T06:47:16.459Z,1027.65
2019-03-28T06:48:16.450Z,1027.65
2019-03-28T06:49:16.437Z,1027.65
2019-03-28T06:50:16.427Z,1027.64
2019-03-28T06:51:16.409Z,1027.72
2019-03-28T06:52:16.399Z,1027.70
2019-03-28T06:53:16.390Z,1027.70
2019-03-28T06:54:16.378Z,1027.78
2019-03-28T06:55:16.366Z,1027.72
2019-03-28T06:56:17.344Z,1027.67
2019-03-28T06:57:18.839Z,1027.74
2019-03-28T06:58:16.337Z,1027.76
2019-03-28T06:59:16.327Z,1027.83
2019-03-28T07:00:16.386Z,1027.78
2019-03-28T07:01:16.303Z,1027.77
2019-03-28T07:02:17.281Z,1027.77
2019-03-28T07:03:16.281Z,1027.77
2019-03-28T07:04:16.289Z,1027.92
2019-03-28T07:05:16.256Z,1027.78
2019-03-28T07:06:16.247Z,1027.79
2019-03-28T07:07:18.422Z,1027.76
2019-03-28T07:08:16.268Z,1027.74
2019-03-28T07:09:16.214Z,1027.81
2019-03-28T07:10:16.203Z,1027.78
2019-03-28T07:11:16.192Z,1027.81
2019-03-28T07:12:16.181Z,1027.81
2019-03-28T07:13:16.171Z,1027.91
2019-03-28T07:14:16.197Z,1027.84
2019-03-28T07:15:16.148Z,1027.86
2019-03-28T07:16:16.134Z,1027.79
2019-03-28T07:17:16.122Z,1027.91
2019-03-28T07:18:16.189Z,1027.84
2019-03-28T07:19:16.104Z,1027.79
2019-03-28T07:20:16.139Z,1027.81
2019-03-28T07:21:16.081Z,1027.91
2019-03-28T07:22:16.067Z,1027.82
2019-03-28T07:23:16.054Z,1027.83
2019-03-28T07:24:16.046Z,1027.81
2019-03-28T07:25:16.032Z,1027.79
2019-03-28T07:26:16.350Z,1027.82
2019-03-28T07:27:16.051Z,1027.82
2019-03-28T07:28:16.000Z,1027.81
2019-03-28T07:29:15.988Z,1027.92
2019-03-28T07:30:15.984Z,1027.85
2019-03-28T07:31:15.971Z,1027.87
2019-03-28T07:32:16.284Z,1027.92
2019-03-28T07:33:15.948Z,1027.85
2019-03-28T07:34:15.932Z,1027.91
2019-03-28T07:35:15.921Z,1027.96
2019-03-28T07:36:15.911Z,1027.98
2019-03-28T07:37:15.898Z,1027.89
2019-03-28T07:38:15.941Z,1028.02
2019-03-28T07:39:18.871Z,1027.98
2019-03-28T07:40:15.870Z,1027.97
2019-03-28T07:41:16.629Z,1027.98
2019-03-28T07:42:15.849Z,1027.98
2019-03-28T07:43:15.838Z,1028.00
2019-03-28T07:44:15.835Z,1027.97
2019-03-28T07:45:15.815Z,1027.97
2019-03-28T07:46:15.799Z,1028.01
2019-03-28T07:47:15.794Z,1027.98
2019-03-28T07:48:15.777Z,1027.98
2019-03-28T07:49:15.766Z,1027.98
2019-03-28T07:50:15.791Z,1027.99
2019-03-28T07:51:15.748Z,1028.05
2019-03-28T07:52:15.740Z,1028.07
2019-03-28T07:53:15.726Z,1028.07
2019-03-28T07:54:15.713Z,1028.17
2019-03-28T07:55:16.642Z,1028.12
2019-03-28T07:56:16.013Z,1028.13
2019-03-28T07:57:15.677Z,1028.14
2019-03-28T07:58:15.666Z,1028.14
2019-03-28T07:59:15.655Z,1028.11
2019-03-28T08:00:15.644Z,1028.11
2019-03-28T08:01:18.122Z,1028.17
2019-03-28T08:02:15.671Z,1028.11
2019-03-28T08:03:15.614Z,1028.08
2019-03-28T08:04:15.604Z,1028.13
2019-03-28T08:05:15.593Z,1028.14
2019-03-28T08:06:15.577Z,1028.11
2019-03-28T08:07:15.567Z,1028.13
2019-03-28T08:08:15.593Z,1028.13
2019-03-28T08:09:17.540Z,1028.17
2019-03-28T08:10:15.538Z,1028.14
2019-03-28T08:11:15.553Z,1028.16
2019-03-28T08:12:22.370Z,1028.18
2019-03-28T08:13:16.545Z,1028.15
2019-03-28T08:14:15.493Z,1028.14
2019-03-28T08:15:15.516Z,1028.14
2019-03-28T08:16:15.470Z,1028.11
2019-03-28T08:17:15.460Z,1028.13
2019-03-28T08:18:15.444Z,1028.09
2019-03-28T08:19:15.453Z,1028.14
2019-03-28T08:20:15.422Z,1028.10
2019-03-28T08:21:15.414Z,1028.10
2019-03-28T08:22:15.405Z,1028.12
2019-03-28T08:23:15.394Z,1028.14
2019-03-28T08:24:15.383Z,1028.13
2019-03-28T08:25:15.409Z,1028.11
2019-03-28T08:26:15.355Z,1028.19
2019-03-28T08:27:15.344Z,1028.19
2019-03-28T08:28:15.333Z,1028.24
2019-03-28T08:29:15.322Z,1028.25
2019-03-28T08:30:18.496Z,1028.25
2019-03-28T08:31:15.312Z,1028.27
2019-03-28T08:32:15.293Z,1028.24
2019-03-28T08:33:15.284Z,1028.28
2019-03-28T08:34:15.267Z,1028.25
2019-03-28T08:35:15.259Z,1028.34
2019-03-28T08:36:15.245Z,1028.32
2019-03-28T08:37:15.259Z,1028.33
2019-03-28T08:38:15.227Z,1028.38
2019-03-28T08:39:15.216Z,1028.39
2019-03-28T08:40:15.204Z,1028.41
2019-03-28T08:41:15.195Z,1028.38
2019-03-28T08:42:15.177Z,1028.38
2019-03-28T08:43:15.504Z,1028.45
2019-03-28T08:44:15.159Z,1028.42
2019-03-28T08:45:15.147Z,1028.45
2019-03-28T08:46:15.134Z,1028.49
2019-03-28T08:47:15.122Z,1028.53
2019-03-28T08:48:15.111Z,1028.55
2019-03-28T08:49:15.145Z,1028.51
2019-03-28T08:50:15.100Z,1028.54
2019-03-28T08:51:15.084Z,1028.52
2019-03-28T08:52:15.074Z,1028.53
2019-03-28T08:53:15.060Z,1028.52
2019-03-28T08:54:15.045Z,1028.51
2019-03-28T08:55:15.076Z,1028.53
2019-03-28T08:56:15.024Z,1028.49
2019-03-28T08:57:15.013Z,1028.48
2019-03-28T08:58:15.006Z,1028.49
2019-03-28T08:59:14.994Z,1028.54
2019-03-28T09:00:16.816Z,1028.58
2019-03-28T09:01:15.780Z,1028.57
2019-03-28T09:02:14.962Z,1028.61
2019-03-28T09:03:14.949Z,1028.64
2019-03-28T09:04:14.940Z,1028.63
2019-03-28T09:05:14.928Z,1028.66
2019-03-28T09:06:17.141Z,1028.66
2019-03-28T09:07:17.413Z,1028.61
2019-03-28T09:08:14.891Z,1028.62
2019-03-28T09:09:14.880Z,1028.62
2019-03-28T09:10:14.873Z,1028.60
2019-03-28T09:11:14.862Z,1028.63
2019-03-28T09:12:14.850Z,1028.60
2019-03-28T09:13:15.157Z,1028.58
2019-03-28T09:14:14.824Z,1028.57
2019-03-28T09:15:14.812Z,1028.57
2019-03-28T09:16:14.804Z,1028.55
2019-03-28T09:17:14.789Z,1028.54
2019-03-28T09:18:14.780Z,1028.53
2019-03-28T09:19:15.577Z,1028.51
2019-03-28T09:20:14.758Z,1028.53
2019-03-28T09:21:14.821Z,1028.49
2019-03-28T09:22:14.742Z,1028.50
2019-03-28T09:23:14.730Z,1028.50
2019-03-28T09:24:14.721Z,1028.53
2019-03-28T09:25:14.746Z,1028.48
2019-03-28T09:26:14.694Z,1028.47
2019-03-28T09:27:14.678Z,1028.47
2019-03-28T09:28:14.668Z,1028.47
2019-03-28T09:29:14.658Z,1028.53
2019-03-28T09:30:14.655Z,1028.50
2019-03-28T09:31:20.068Z,1028.53
2019-03-28T09:32:15.630Z,1028.56
2019-03-28T09:33:14.623Z,1028.52
2019-03-28T09:34:14.675Z,1028.54
2019-03-28T09:35:14.597Z,1028.57
2019-03-28T09:36:14.588Z,1028.52
2019-03-28T09:37:14.614Z,1028.50
2019-03-28T09:38:14.558Z,1028.54
2019-03-28T09:39:14.551Z,1028.46
2019-03-28T09:40:14.535Z,1028.50
2019-03-28T09:41:14.524Z,1028.47
2019-03-28T09:42:14.521Z,1028.46
2019-03-28T09:43:14.537Z,1028.42
2019-03-28T09:44:14.497Z,1028.40
2019-03-28T09:45:14.484Z,1028.45
2019-03-28T09:46:14.468Z,1028.45
2019-03-28T09:47:14.457Z,1028.42
2019-03-28T09:48:14.448Z,1028.43
2019-03-28T09:49:14.462Z,1028.40
2019-03-28T09:50:14.437Z,1028.40
2019-03-28T09:51:14.420Z,1028.36
2019-03-28T09:52:14.402Z,1028.39
2019-03-28T09:53:14.393Z,1028.32
2019-03-28T09:54:14.387Z,1028.41
2019-03-28T09:55:14.409Z,1028.36
2019-03-28T09:56:14.365Z,1028.34
2019-03-28T09:57:14.351Z,1028.35
2019-03-28T09:58:14.339Z,1028.33
2019-03-28T09:59:14.329Z,1028.42
2019-03-28T10:00:14.316Z,1028.42
2019-03-28T10:01:14.339Z,1028.45
2019-03-28T10:02:14.296Z,1028.47
2019-03-28T10:03:14.287Z,1028.47
2019-03-28T10:04:14.273Z,1028.40
2019-03-28T10:05:14.267Z,1028.43
2019-03-28T10:06:14.252Z,1028.39
2019-03-28T10:07:14.572Z,1028.37
2019-03-28T10:08:14.230Z,1028.40
2019-03-28T10:09:14.218Z,1028.38
2019-03-28T10:10:14.202Z,1028.41
2019-03-28T10:11:14.206Z,1028.43
2019-03-28T10:12:14.180Z,1028.41
2019-03-28T10:13:14.202Z,1028.41
2019-03-28T10:14:14.162Z,1028.38
2019-03-28T10:15:14.152Z,1028.42
2019-03-28T10:16:14.144Z,1028.36
2019-03-28T10:17:14.129Z,1028.40
2019-03-28T10:18:14.114Z,1028.42
2019-03-28T10:19:14.143Z,1028.45
2019-03-28T10:20:14.102Z,1028.51
2019-03-28T10:21:14.081Z,1028.51
2019-03-28T10:22:14.070Z,1028.51
2019-03-28T10:23:14.061Z,1028.53
2019-03-28T10:24:14.048Z,1028.54
2019-03-28T10:25:14.584Z,1028.53
2019-03-28T10:26:14.032Z,1028.55
2019-03-28T10:27:14.019Z,1028.58
2019-03-28T10:28:14.008Z,1028.53
2019-03-28T10:29:14.000Z,1028.59
2019-03-28T10:30:13.981Z,1028.55
2019-03-28T10:31:16.577Z,1028.60
2019-03-28T10:32:13.962Z,1028.56
2019-03-28T10:33:13.951Z,1028.58
2019-03-28T10:34:13.944Z,1028.59
2019-03-28T10:35:13.930Z,1028.62
2019-03-28T10:36:13.919Z,1028.64
2019-03-28T10:37:14.245Z,1028.62
2019-03-28T10:38:13.901Z,1028.63
2019-03-28T10:39:13.882Z,1028.60
2019-03-28T10:40:13.955Z,1028.63
2019-03-28T10:41:13.859Z,1028.62
2019-03-28T10:42:13.851Z,1028.62
2019-03-28T10:43:13.883Z,1028.60
2019-03-28T10:44:13.831Z,1028.55
2019-03-28T10:45:13.818Z,1028.58
2019-03-28T10:46:13.804Z,1028.57
2019-03-28T10:47:13.798Z,1028.64
2019-03-28T10:48:13.780Z,1028.61
2019-03-28T10:49:13.801Z,1028.60
2019-03-28T10:50:13.762Z,1028.59
2019-03-28T10:51:13.753Z,1028.60
2019-03-28T10:52:13.741Z,1028.60
2019-03-28T10:53:13.731Z,1028.61
2019-03-28T10:54:20.012Z,1028.57
2019-03-28T10:55:14.751Z,1028.53
2019-03-28T10:56:21.429Z,1028.55
2019-03-28T10:57:28.871Z,1028.57
2019-03-28T10:58:18.927Z,1028.58
2019-03-28T10:59:23.196Z,1028.55
2019-03-28T11:00:24.130Z,1028.59
2019-03-28T11:01:16.683Z,1028.57
2019-03-28T11:02:14.630Z,1028.63
2019-03-28T11:03:13.621Z,1028.59
2019-03-28T11:04:13.611Z,1028.56
2019-03-28T11:05:14.489Z,1028.56
2019-03-28T11:06:13.581Z,1028.59
2019-03-28T11:07:13.602Z,1028.57
2019-03-28T11:08:13.560Z,1028.55
2019-03-28T11:09:13.549Z,1028.61
2019-03-28T11:10:13.537Z,1028.67
2019-03-28T11:11:13.527Z,1028.66
2019-03-28T11:12:13.515Z,1028.69
2019-03-28T11:13:13.541Z,1028.68
2019-03-28T11:14:13.498Z,1028.69
2019-03-28T11:15:13.487Z,1028.66
2019-03-28T11:16:15.063Z,1028.71
2019-03-28T11:17:13.479Z,1028.69
2019-03-28T11:18:13.810Z,1028.75
2019-03-28T11:19:15.798Z,1028.74
2019-03-28T11:20:13.427Z,1028.77
2019-03-28T11:21:13.416Z,1028.84
2019-03-28T11:22:13.412Z,1028.91
2019-03-28T11:23:13.400Z,1028.86
2019-03-28T11:24:13.387Z,1028.91
2019-03-28T11:25:13.406Z,1028.93
2019-03-28T11:26:13.369Z,1028.93
2019-03-28T11:27:13.354Z,1028.92
2019-03-28T11:28:13.343Z,1028.91
2019-03-28T11:29:13.331Z,1028.98
2019-03-28T11:30:13.316Z,1028.94
2019-03-28T11:31:13.344Z,1028.95
2019-03-28T11:32:13.296Z,1028.94
2019-03-28T11:33:13.284Z,1028.96
2019-03-28T11:34:13.277Z,1028.98
2019-03-28T11:35:13.264Z,1028.93
2019-03-28T11:36:13.255Z,1028.94
2019-03-28T11:37:25.287Z,1028.97
2019-03-28T11:38:14.227Z,1028.98
2019-03-28T11:39:13.216Z,1028.97
2019-03-28T11:40:13.206Z,1028.96
2019-03-28T11:41:13.194Z,1028.98
2019-03-28T11:42:13.187Z,1028.97
2019-03-28T11:43:13.510Z,1028.95
2019-03-28T11:44:13.166Z,1028.94
2019-03-28T11:45:13.155Z,1028.97
2019-03-28T11:46:13.138Z,1028.92
2019-03-28T11:47:13.127Z,1028.89
2019-03-28T11:48:13.118Z,1028.92
2019-03-28T11:49:13.115Z,1028.94
2019-03-28T11:50:13.100Z,1028.98
2019-03-28T11:51:13.088Z,1029.01
2019-03-28T11:52:13.078Z,1028.99
2019-03-28T11:53:13.071Z,1028.96
2019-03-28T11:54:13.050Z,1029.03
2019-03-28T11:55:13.087Z,1029.00
2019-03-28T11:56:13.027Z,1029.01
2019-03-28T11:57:15.683Z,1029.04
2019-03-28T11:58:13.008Z,1028.98
2019-03-28T11:59:12.995Z,1028.98
2019-03-28T12:00:12.983Z,1029.02
2019-03-28T12:01:13.305Z,1029.04
2019-03-28T12:02:19.817Z,1029.03
2019-03-28T12:03:13.954Z,1029.05
2019-03-28T12:04:12.944Z,1029.03
2019-03-28T12:05:12.933Z,1029.01